Time;durP1;ratioP1;P1;durP2;ratioP2;P2;SDS_P1;SDS_P2;PMS_P1;PMS_P2;Temp;Humidity;BMP_temperature;BMP_pressure;BME280_temperature;BME280_humidity;BME280_pressure;Samples;Min_cycle;Max_cycle;Signal;HPM_P1;HPM_P2
2021/08/05 00:01:19;;;;;;;11.27;10.27;;;;;;;;;;3586168;40;20043;-69
2021/08/05 00:03:44;;;;;;;12.25;11.02;;;;;;;;;;3585355;40;20056;-69
2021/08/05 00:06:10;;;;;;;9.93;9.02;;;;;;;;;;3586429;40;20028;-69
2021/08/05 00:08:35;;;;;;;10.95;9.90;;;;;;;;;;3586884;40;20037;-69
2021/08/05 00:11:01;;;;;;;9.23;8.43;;;;;;;;;;3587034;40;20028;-69
2021/08/05 00:13:26;;;;;;;8.05;7.40;;;;;;;;;;3586003;40;20059;-68
2021/08/05 00:15:51;;;;;;;10.57;9.48;;;;;;;;;;3585611;40;20035;-69
2021/08/05 00:18:17;;;;;;;9.02;8.23;;;;;;;;;;3586525;40;20036;-69
2021/08/05 00:20:43;;;;;;;9.25;8.43;;;;;;;;;;3586466;40;20038;-69
2021/08/05 00:23:08;;;;;;;9.27;8.48;;;;;;;;;;3586382;40;20044;-69
2021/08/05 00:25:33;;;;;;;11.65;10.75;;;;;;;;;;3586342;40;20041;-69
2021/08/05 00:27:59;;;;;;;14.85;13.75;;;;;;;;;;3586636;40;20025;-69
2021/08/05 00:30:24;;;;;;;16.30;14.93;;;;;;;;;;3585933;40;20141;-69
2021/08/05 00:32:50;;;;;;;17.58;16.20;;;;;;;;;;3586139;40;20036;-69
2021/08/05 00:35:15;;;;;;;18.13;16.83;;;;;;;;;;3586552;40;20037;-69
2021/08/05 00:37:41;;;;;;;18.55;17.33;;;;;;;;;;3585612;40;20036;-68
2021/08/05 00:40:06;;;;;;;19.75;18.50;;;;;;;;;;3586558;40;20039;-68
2021/08/05 00:42:32;;;;;;;19.45;18.08;;;;;;;;;;3586185;40;20029;-68
2021/08/05 00:44:58;;;;;;;19.35;17.75;;;;;;;;;;3585280;40;20038;-68
2021/08/05 00:47:26;;;;;;;20.00;18.52;;;;;;;;;;3585308;40;20028;-69
2021/08/05 00:49:52;;;;;;;21.77;20.35;;;;;;;;;;3586041;40;20059;-68
2021/08/05 00:52:17;;;;;;;24.10;22.42;;;;;;;;;;3586321;40;20044;-69
2021/08/05 00:54:42;;;;;;;19.38;18.13;;;;;;;;;;3586043;40;20344;-69
2021/08/05 00:57:08;;;;;;;22.00;20.58;;;;;;;;;;3586329;40;20402;-67
2021/08/05 00:59:34;;;;;;;23.10;21.42;;;;;;;;;;3586255;40;20036;-68
2021/08/05 01:02:05;;;;;;;18.73;17.48;;;;;;;;;;3585939;40;20156;-68
2021/08/05 01:04:32;;;;;;;18.85;17.35;;;;;;;;;;3586090;40;20043;-68
2021/08/05 01:07:09;;;;;;;17.75;16.35;;;;;;;;;;3585796;40;20040;-68
2021/08/05 01:09:49;;;;;;;17.70;16.55;;;;;;;;;;3584609;40;20108;-68
2021/08/05 01:12:50;;;;;;;17.65;15.85;;;;;;;;;;3586145;40;20048;-69
2021/08/05 01:15:25;;;;;;;17.42;16.23;;;;;;;;;;3585410;40;20264;-68
2021/08/05 01:18:12;;;;;;;22.63;21.05;;;;;;;;;;3585544;40;20033;-69
2021/08/05 01:20:42;;;;;;;19.85;18.58;;;;;;;;;;3585914;40;20068;-68
2021/08/05 01:23:35;;;;;;;19.57;18.03;;;;;;;;;;3585829;40;20047;-69
2021/08/05 01:26:12;;;;;;;21.33;19.90;;;;;;;;;;3585832;40;20253;-69
2021/08/05 01:28:41;;;;;;;18.52;17.08;;;;;;;;;;3585856;40;20383;-68
2021/08/05 01:31:07;;;;;;;19.45;18.13;;;;;;;;;;3586682;40;20036;-68
2021/08/05 01:33:36;;;;;;;18.10;16.80;;;;;;;;;;3586722;40;20047;-68
2021/08/05 01:36:03;;;;;;;20.30;18.80;;;;;;;;;;3586647;40;20264;-68
2021/08/05 01:38:31;;;;;;;18.55;17.25;;;;;;;;;;3587316;40;20043;-68
2021/08/05 01:40:58;;;;;;;17.15;15.65;;;;;;;;;;3587228;40;20464;-68
2021/08/05 01:43:24;;;;;;;15.77;14.57;;;;;;;;;;3586580;40;20130;-68
2021/08/05 01:45:49;;;;;;;19.83;18.20;;;;;;;;;;3586758;40;20040;-69
2021/08/05 01:48:17;;;;;;;19.80;18.00;;;;;;;;;;3584950;40;20040;-68
2021/08/05 01:50:44;;;;;;;12.90;11.70;;;;;;;;;;3587457;40;20045;-68
2021/08/05 01:53:12;;;;;;;10.70;9.82;;;;;;;;;;3587010;40;20032;-69
2021/08/05 01:55:38;;;;;;;10.32;9.50;;;;;;;;;;3587219;40;20134;-68
2021/08/05 01:58:03;;;;;;;13.43;12.43;;;;;;;;;;3587468;40;20090;-69
2021/08/05 02:00:29;;;;;;;15.07;14.07;;;;;;;;;;3587444;40;20055;-68
2021/08/05 02:02:54;;;;;;;10.65;9.75;;;;;;;;;;3587488;40;20059;-68
2021/08/05 02:05:26;;;;;;;16.45;15.30;;;;;;;;;;3586322;40;20041;-68
2021/08/05 02:08:08;;;;;;;15.75;14.70;;;;;;;;;;3586827;40;20080;-68
2021/08/05 02:10:39;;;;;;;13.70;12.40;;;;;;;;;;3586553;40;20032;-68
2021/08/05 02:13:28;;;;;;;13.70;12.70;;;;;;;;;;3587663;40;20033;-68
2021/08/05 02:15:58;;;;;;;16.90;15.50;;;;;;;;;;3586953;40;20044;-67
2021/08/05 02:18:27;;;;;;;10.93;10.05;;;;;;;;;;3586144;40;20042;-67
2021/08/05 02:20:54;;;;;;;10.90;9.88;;;;;;;;;;3586983;40;20168;-66
2021/08/05 02:23:20;;;;;;;12.30;11.30;;;;;;;;;;3586521;40;20280;-66
2021/08/05 02:25:49;;;;;;;11.90;10.90;;;;;;;;;;3582145;40;20068;-66
2021/08/05 02:28:16;;;;;;;13.68;12.43;;;;;;;;;;3587010;40;20036;-66
2021/08/05 02:30:42;;;;;;;12.40;11.50;;;;;;;;;;3587040;40;20072;-66
2021/08/05 02:33:08;;;;;;;11.10;10.10;;;;;;;;;;3586568;40;20032;-67
2021/08/05 02:35:37;;;;;;;11.63;10.48;;;;;;;;;;3586129;40;20032;-67
2021/08/05 02:38:03;;;;;;;12.25;11.25;;;;;;;;;;3586860;40;20117;-67
2021/08/05 02:40:30;;;;;;;12.75;11.52;;;;;;;;;;3586391;40;20032;-67
2021/08/05 02:42:57;;;;;;;11.38;10.40;;;;;;;;;;3587164;40;20040;-67
2021/08/05 02:45:23;;;;;;;11.35;10.25;;;;;;;;;;3587016;40;20048;-67
2021/08/05 02:47:49;;;;;;;10.48;9.40;;;;;;;;;;3585728;40;20040;-67
2021/08/05 02:50:14;;;;;;;11.57;10.52;;;;;;;;;;3588602;40;20033;-68
2021/08/05 02:52:41;;;;;;;10.75;9.75;;;;;;;;;;3586561;40;20094;-68
2021/08/05 02:55:08;;;;;;;11.95;9.77;;;;;;;;;;3586979;40;20288;-68
2021/08/05 02:57:34;;;;;;;10.35;9.32;;;;;;;;;;3586425;40;20082;-68
2021/08/05 03:00:00;;;;;;;11.35;10.45;;;;;;;;;;3583595;40;20400;-68
2021/08/05 03:02:25;;;;;;;10.75;9.75;;;;;;;;;;3586755;40;20039;-68
2021/08/05 03:04:50;;;;;;;11.30;10.32;;;;;;;;;;3587147;40;20260;-67
2021/08/05 03:07:16;;;;;;;10.85;9.85;;;;;;;;;;3586858;40;20032;-68
2021/08/05 03:09:41;;;;;;;10.65;9.68;;;;;;;;;;3586142;40;20382;-67
2021/08/05 03:12:07;;;;;;;10.63;9.68;;;;;;;;;;3586052;40;20036;-68
2021/08/05 03:14:33;;;;;;;10.30;9.40;;;;;;;;;;3586460;40;20036;-68
2021/08/05 03:17:00;;;;;;;9.93;9.13;;;;;;;;;;3586707;40;20056;-67
2021/08/05 03:19:25;;;;;;;11.05;9.88;;;;;;;;;;3585372;40;20392;-68
2021/08/05 03:21:51;;;;;;;10.90;9.80;;;;;;;;;;3586284;40;20106;-68
2021/08/05 03:24:16;;;;;;;10.95;10.05;;;;;;;;;;3587064;40;20141;-69
2021/08/05 03:26:41;;;;;;;10.45;9.50;;;;;;;;;;3585883;40;20115;-69
2021/08/05 03:29:07;;;;;;;9.35;8.45;;;;;;;;;;3586317;40;20269;-68
2021/08/05 03:31:32;;;;;;;11.15;10.07;;;;;;;;;;3586526;40;20098;-68
2021/08/05 03:33:58;;;;;;;11.55;10.52;;;;;;;;;;3586985;40;20037;-68
2021/08/05 03:36:23;;;;;;;12.00;10.98;;;;;;;;;;3585744;40;20570;-68
2021/08/05 03:38:49;;;;;;;11.35;10.25;;;;;;;;;;3586729;40;20816;-68
2021/08/05 03:41:14;;;;;;;11.23;10.32;;;;;;;;;;3586725;40;20043;-68
2021/08/05 03:43:40;;;;;;;10.45;9.63;;;;;;;;;;3586029;40;20106;-69
2021/08/05 03:46:05;;;;;;;11.38;10.38;;;;;;;;;;3586095;40;20044;-69
2021/08/05 03:48:31;;;;;;;15.77;9.82;;;;;;;;;;3586528;40;20036;-69
2021/08/05 03:50:56;;;;;;;9.48;8.68;;;;;;;;;;3586790;40;20033;-70
2021/08/05 03:53:21;;;;;;;9.93;9.02;;;;;;;;;;3585529;40;20052;-68
2021/08/05 03:55:47;;;;;;;13.43;8.75;;;;;;;;;;3583686;40;20037;-69
2021/08/05 03:58:12;;;;;;;8.73;7.97;;;;;;;;;;3585182;40;20025;-69
2021/08/05 04:00:38;;;;;;;13.82;8.90;;;;;;;;;;3586639;40;20035;-69
2021/08/05 04:03:03;;;;;;;9.80;8.90;;;;;;;;;;3586160;40;20122;-69
2021/08/05 04:05:29;;;;;;;8.15;7.45;;;;;;;;;;3586588;40;20028;-69
2021/08/05 04:07:54;;;;;;;8.38;7.57;;;;;;;;;;3585483;40;20024;-69
2021/08/05 04:10:20;;;;;;;9.32;8.10;;;;;;;;;;3585973;40;20422;-69
2021/08/05 04:12:45;;;;;;;10.73;8.57;;;;;;;;;;3586785;40;20024;-69
2021/08/05 04:15:11;;;;;;;12.20;11.20;;;;;;;;;;3585498;40;20032;-69
2021/08/05 04:17:37;;;;;;;11.85;10.90;;;;;;;;;;3584611;40;20067;-69
2021/08/05 04:20:04;;;;;;;13.63;12.55;;;;;;;;;;3585831;40;20037;-69
2021/08/05 04:22:29;;;;;;;12.20;11.20;;;;;;;;;;3586339;40;20033;-69
2021/08/05 04:24:55;;;;;;;13.30;12.15;;;;;;;;;;3586917;40;20035;-69
2021/08/05 04:27:20;;;;;;;13.93;12.68;;;;;;;;;;3586534;40;20453;-69
2021/08/05 04:29:46;;;;;;;12.93;11.80;;;;;;;;;;3585747;40;20048;-69
2021/08/05 04:32:11;;;;;;;12.98;11.93;;;;;;;;;;3587200;40;20048;-68
2021/08/05 04:34:36;;;;;;;13.77;12.80;;;;;;;;;;3584488;40;20044;-68
2021/08/05 04:37:02;;;;;;;12.93;11.93;;;;;;;;;;3586023;40;20044;-68
2021/08/05 04:39:28;;;;;;;13.57;12.52;;;;;;;;;;3585002;40;20080;-68
2021/08/05 04:41:53;;;;;;;13.48;12.27;;;;;;;;;;3585478;40;20032;-68
2021/08/05 04:44:18;;;;;;;15.57;14.32;;;;;;;;;;3586462;40;20047;-68
2021/08/05 04:46:44;;;;;;;13.93;12.35;;;;;;;;;;3585870;40;20043;-68
2021/08/05 04:49:09;;;;;;;11.85;10.90;;;;;;;;;;3585629;40;20048;-68
2021/08/05 04:51:35;;;;;;;15.20;14.10;;;;;;;;;;3586369;40;20037;-68
2021/08/05 04:54:02;;;;;;;11.90;11.00;;;;;;;;;;3586072;40;20122;-68
2021/08/05 04:56:28;;;;;;;13.82;12.82;;;;;;;;;;3584594;40;20033;-68
2021/08/05 04:58:54;;;;;;;12.88;11.77;;;;;;;;;;3584487;40;20040;-68
2021/08/05 05:01:19;;;;;;;13.55;12.45;;;;;;;;;;3584270;40;20292;-70
2021/08/05 05:03:45;;;;;;;10.80;9.90;;;;;;;;;;3585662;40;20037;-69
2021/08/05 05:06:10;;;;;;;11.63;10.63;;;;;;;;;;3585846;40;20250;-69
2021/08/05 05:08:35;;;;;;;11.55;10.35;;;;;;;;;;3585581;40;20044;-69
2021/08/05 05:11:01;;;;;;;12.13;11.13;;;;;;;;;;3584717;40;20379;-69
2021/08/05 05:13:27;;;;;;;11.32;10.32;;;;;;;;;;3585486;40;20042;-68
2021/08/05 05:15:53;;;;;;;10.98;9.98;;;;;;;;;;3585858;40;20036;-68
2021/08/05 05:18:21;;;;;;;11.18;10.07;;;;;;;;;;3584413;40;20029;-69
2021/08/05 05:20:47;;;;;;;11.40;10.50;;;;;;;;;;3585697;40;20036;-69
2021/08/05 05:23:12;;;;;;;10.20;9.30;;;;;;;;;;3586433;40;20036;-69
2021/08/05 05:25:38;;;;;;;11.82;10.63;;;;;;;;;;3587452;40;20395;-68
2021/08/05 05:28:04;;;;;;;11.18;10.18;;;;;;;;;;3587242;40;20076;-69
2021/08/05 05:30:30;;;;;;;11.48;10.55;;;;;;;;;;3587839;40;20029;-69
2021/08/05 05:32:55;;;;;;;13.80;9.27;;;;;;;;;;3586577;40;20534;-69
2021/08/05 05:35:21;;;;;;;11.57;10.57;;;;;;;;;;3586439;40;20106;-69
2021/08/05 05:37:49;;;;;;;10.88;9.88;;;;;;;;;;3586651;40;20072;-69
2021/08/05 05:40:16;;;;;;;11.82;10.73;;;;;;;;;;3586688;40;20028;-69
2021/08/05 05:42:42;;;;;;;11.20;10.20;;;;;;;;;;3586008;40;20048;-69
2021/08/05 05:45:09;;;;;;;10.90;10.00;;;;;;;;;;3586592;40;20048;-70
2021/08/05 05:47:35;;;;;;;13.43;11.38;;;;;;;;;;3586456;40;20424;-72
2021/08/05 05:50:00;;;;;;;11.45;10.55;;;;;;;;;;3587867;40;20045;-72
2021/08/05 05:52:26;;;;;;;12.48;11.48;;;;;;;;;;3585825;40;20743;-70
2021/08/05 05:54:52;;;;;;;13.20;12.10;;;;;;;;;;3584804;40;20048;-71
2021/08/05 05:57:17;;;;;;;12.65;11.55;;;;;;;;;;3585940;40;20648;-71
2021/08/05 05:59:42;;;;;;;12.20;11.10;;;;;;;;;;3585984;40;20089;-72
2021/08/05 06:02:08;;;;;;;12.30;11.30;;;;;;;;;;3585205;40;20080;-71
2021/08/05 06:04:34;;;;;;;13.68;12.57;;;;;;;;;;3586253;40;20126;-71
2021/08/05 06:07:00;;;;;;;12.43;11.35;;;;;;;;;;3586740;40;20041;-71
2021/08/05 06:09:25;;;;;;;12.93;11.73;;;;;;;;;;3585491;40;20425;-71
2021/08/05 06:11:51;;;;;;;13.35;12.35;;;;;;;;;;3585871;40;20036;-71
2021/08/05 06:14:17;;;;;;;12.27;11.18;;;;;;;;;;3585467;40;20567;-70
2021/08/05 06:16:42;;;;;;;11.02;10.02;;;;;;;;;;3586711;40;20048;-70
2021/08/05 06:19:09;;;;;;;9.93;9.02;;;;;;;;;;3587567;40;20087;-70
2021/08/05 06:21:34;;;;;;;9.40;8.50;;;;;;;;;;3586968;40;20129;-71
2021/08/05 06:24:00;;;;;;;9.88;8.88;;;;;;;;;;3587328;40;20322;-70
2021/08/05 06:26:25;;;;;;;8.75;7.90;;;;;;;;;;3586317;40;20347;-70
2021/08/05 06:28:52;;;;;;;12.27;11.13;;;;;;;;;;3589318;40;20118;-70
2021/08/05 06:31:18;;;;;;;14.48;9.13;;;;;;;;;;3585752;40;20044;-70
2021/08/05 06:33:44;;;;;;;10.00;9.00;;;;;;;;;;3586795;40;20033;-70
2021/08/05 06:36:11;;;;;;;13.48;8.93;;;;;;;;;;3587389;40;20033;-70
2021/08/05 06:38:37;;;;;;;10.05;9.15;;;;;;;;;;3586983;40;20130;-70
2021/08/05 06:41:03;;;;;;;10.25;8.65;;;;;;;;;;3587142;40;20422;-70
2021/08/05 06:43:28;;;;;;;9.57;8.68;;;;;;;;;;3586232;40;20029;-71
2021/08/05 06:45:53;;;;;;;8.98;8.07;;;;;;;;;;3587028;40;20081;-70
2021/08/05 06:48:19;;;;;;;9.18;7.93;;;;;;;;;;3586056;40;20360;-70
2021/08/05 06:50:44;;;;;;;8.38;7.50;;;;;;;;;;3583740;40;20033;-70
2021/08/05 06:53:10;;;;;;;8.07;7.28;;;;;;;;;;3584769;40;20059;-70
2021/08/05 06:55:35;;;;;;;10.20;8.50;;;;;;;;;;3586508;40;20040;-71
2021/08/05 06:58:00;;;;;;;8.75;7.78;;;;;;;;;;3586625;40;20053;-71
2021/08/05 07:00:26;;;;;;;10.48;8.55;;;;;;;;;;3586824;40;20043;-70
2021/08/05 07:02:51;;;;;;;9.50;8.38;;;;;;;;;;3586773;40;20032;-70
2021/08/05 07:05:17;;;;;;;10.05;9.05;;;;;;;;;;3587112;40;20052;-70
2021/08/05 07:07:43;;;;;;;9.55;8.65;;;;;;;;;;3585343;40;20077;-71
2021/08/05 07:10:09;;;;;;;9.63;8.35;;;;;;;;;;3586234;40;20028;-70
2021/08/05 07:12:34;;;;;;;8.50;7.70;;;;;;;;;;3586391;40;20072;-70
2021/08/05 07:15:00;;;;;;;8.65;7.35;;;;;;;;;;3586049;40;20055;-70
2021/08/05 07:17:26;;;;;;;8.13;6.55;;;;;;;;;;3585234;40;20048;-70
2021/08/05 07:19:51;;;;;;;8.43;7.47;;;;;;;;;;3584540;40;20028;-70
2021/08/05 07:22:17;;;;;;;6.90;6.20;;;;;;;;;;3586100;40;20046;-70
2021/08/05 07:24:43;;;;;;;7.43;6.32;;;;;;;;;;3585854;40;20052;-69
2021/08/05 07:27:08;;;;;;;7.10;5.72;;;;;;;;;;3586040;40;20035;-70
2021/08/05 07:29:34;;;;;;;7.30;5.68;;;;;;;;;;3586690;40;20030;-70
2021/08/05 07:32:04;;;;;;;12.10;7.03;;;;;;;;;;3586718;40;20045;-70
2021/08/05 07:34:31;;;;;;;6.72;5.20;;;;;;;;;;3585466;40;20036;-70
2021/08/05 07:36:57;;;;;;;6.47;5.85;;;;;;;;;;3585440;40;20122;-70
2021/08/05 07:39:22;;;;;;;7.18;5.85;;;;;;;;;;3586636;40;20053;-70
2021/08/05 07:41:48;;;;;;;7.28;5.57;;;;;;;;;;3585951;40;20029;-70
2021/08/05 07:44:13;;;;;;;11.80;6.28;;;;;;;;;;3585476;40;20040;-70
2021/08/05 07:46:39;;;;;;;7.30;5.65;;;;;;;;;;3587244;40;20056;-70
2021/08/05 07:49:04;;;;;;;8.10;5.88;;;;;;;;;;3586669;40;20044;-70
2021/08/05 07:51:30;;;;;;;8.90;5.38;;;;;;;;;;3586475;40;20107;-70
2021/08/05 07:53:55;;;;;;;6.40;5.53;;;;;;;;;;3586690;40;20424;-70
2021/08/05 07:56:21;;;;;;;5.93;4.70;;;;;;;;;;3586568;40;20173;-70
2021/08/05 07:58:50;;;;;;;5.90;4.47;;;;;;;;;;3586665;40;20063;-70
2021/08/05 08:01:16;;;;;;;6.03;4.78;;;;;;;;;;3586127;40;20063;-70
2021/08/05 08:03:42;;;;;;;5.65;4.03;;;;;;;;;;3586540;40;20523;-70
2021/08/05 08:06:07;;;;;;;7.30;4.88;;;;;;;;;;3582856;40;20045;-70
2021/08/05 08:08:33;;;;;;;6.75;4.80;;;;;;;;;;3586404;40;20071;-70
2021/08/05 08:10:59;;;;;;;6.13;5.15;;;;;;;;;;3586182;40;20040;-70
2021/08/05 08:13:25;;;;;;;11.65;4.57;;;;;;;;;;3586043;40;20288;-70
2021/08/05 08:15:52;;;;;;;5.47;4.05;;;;;;;;;;3585304;40;20044;-69
2021/08/05 08:18:17;;;;;;;6.43;4.00;;;;;;;;;;3585528;40;20040;-69
2021/08/05 08:20:44;;;;;;;5.57;4.18;;;;;;;;;;3586263;40;20303;-70
2021/08/05 08:23:09;;;;;;;4.75;3.92;;;;;;;;;;3586818;40;20035;-70
2021/08/05 08:25:35;;;;;;;6.55;4.75;;;;;;;;;;3586750;40;20029;-70
2021/08/05 08:28:00;;;;;;;4.57;3.90;;;;;;;;;;3586055;40;20055;-69
2021/08/05 08:30:26;;;;;;;4.65;3.65;;;;;;;;;;3586257;40;20124;-70
2021/08/05 08:32:52;;;;;;;6.18;4.00;;;;;;;;;;3585642;40;20028;-70
2021/08/05 08:35:18;;;;;;;4.43;3.70;;;;;;;;;;3585859;40;20398;-70
2021/08/05 08:37:44;;;;;;;4.22;3.65;;;;;;;;;;3585642;40;20039;-71
2021/08/05 08:40:12;;;;;;;4.65;3.47;;;;;;;;;;3586476;40;20416;-70
2021/08/05 08:42:39;;;;;;;4.35;3.60;;;;;;;;;;3586294;40;20134;-70
2021/08/05 08:45:07;;;;;;;5.38;3.97;;;;;;;;;;3586130;40;20028;-70
2021/08/05 08:47:33;;;;;;;5.15;4.28;;;;;;;;;;3585975;40;20379;-69
2021/08/05 08:50:00;;;;;;;6.03;4.22;;;;;;;;;;3586458;40;20102;-69
2021/08/05 08:52:27;;;;;;;4.65;3.78;;;;;;;;;;3586201;40;20048;-69
2021/08/05 08:54:55;;;;;;;5.07;3.38;;;;;;;;;;3585377;40;20290;-69
2021/08/05 08:57:23;;;;;;;5.30;3.85;;;;;;;;;;3584837;40;20070;-71
2021/08/05 08:59:50;;;;;;;10.13;4.20;;;;;;;;;;3585706;40;20059;-69
2021/08/05 09:02:16;;;;;;;6.22;4.28;;;;;;;;;;3584696;40;20029;-70
2021/08/05 09:04:42;;;;;;;7.70;4.07;;;;;;;;;;3584953;40;20371;-69
2021/08/05 09:07:07;;;;;;;5.43;3.97;;;;;;;;;;3586346;40;20036;-68
2021/08/05 09:09:32;;;;;;;6.97;4.65;;;;;;;;;;3585708;40;20025;-68
2021/08/05 09:11:59;;;;;;;4.60;3.58;;;;;;;;;;3584512;40;20069;-71
2021/08/05 09:14:39;;;;;;;4.70;3.97;;;;;;;;;;3585096;40;20535;-71
2021/08/05 09:17:27;;;;;;;5.10;3.93;;;;;;;;;;3586119;40;20047;-68
2021/08/05 09:19:55;;;;;;;4.60;3.45;;;;;;;;;;3585878;40;20348;-70
2021/08/05 09:22:40;;;;;;;5.28;3.55;;;;;;;;;;3584108;40;20036;-70
2021/08/05 09:25:17;;;;;;;5.00;3.47;;;;;;;;;;3585705;40;20043;-70
2021/08/05 09:27:45;;;;;;;5.50;3.53;;;;;;;;;;3585515;40;20085;-69
2021/08/05 09:30:10;;;;;;;4.65;3.78;;;;;;;;;;3584545;40;20033;-69
2021/08/05 09:32:35;;;;;;;4.97;4.13;;;;;;;;;;3585194;40;20036;-69
2021/08/05 09:35:06;;;;;;;8.02;4.20;;;;;;;;;;3584806;40;20048;-69
2021/08/05 09:37:39;;;;;;;5.20;4.05;;;;;;;;;;3585817;40;20049;-70
2021/08/05 09:40:12;;;;;;;9.68;4.50;;;;;;;;;;3583496;40;20032;-71
2021/08/05 09:42:37;;;;;;;5.30;4.60;;;;;;;;;;3585374;40;20037;-69
2021/08/05 09:45:05;;;;;;;6.47;4.50;;;;;;;;;;3583943;40;20059;-73
2021/08/05 09:47:30;;;;;;;5.68;4.25;;;;;;;;;;3585259;40;20100;-71
2021/08/05 09:49:57;;;;;;;7.05;3.95;;;;;;;;;;3585849;40;20056;-70
2021/08/05 09:52:36;;;;;;;4.88;3.63;;;;;;;;;;3587098;40;20056;-70
2021/08/05 09:55:05;;;;;;;6.15;4.05;;;;;;;;;;3587089;40;20496;-69
2021/08/05 09:57:36;;;;;;;7.20;3.97;;;;;;;;;;3586414;40;20047;-69
2021/08/05 10:00:14;;;;;;;5.72;3.75;;;;;;;;;;3586844;40;20567;-69
2021/08/05 10:02:44;;;;;;;6.00;4.07;;;;;;;;;;3587180;40;20064;-70
2021/08/05 10:05:30;;;;;;;7.78;3.97;;;;;;;;;;3586708;40;20097;-70
2021/08/05 10:07:59;;;;;;;10.75;3.78;;;;;;;;;;3586684;40;20076;-70
2021/08/05 10:10:27;;;;;;;6.93;3.88;;;;;;;;;;3586696;40;20029;-69
2021/08/05 10:13:00;;;;;;;4.75;3.15;;;;;;;;;;3585656;40;20378;-69
2021/08/05 10:15:27;;;;;;;5.07;2.95;;;;;;;;;;3585891;40;20356;-69
2021/08/05 10:17:59;;;;;;;4.25;3.20;;;;;;;;;;3585059;40;20036;-69
2021/08/05 10:20:25;;;;;;;4.45;2.88;;;;;;;;;;3587600;40;20068;-70
2021/08/05 10:22:52;;;;;;;3.95;2.80;;;;;;;;;;3586662;40;20302;-69
2021/08/05 10:25:22;;;;;;;5.72;3.50;;;;;;;;;;3587406;40;20051;-69
2021/08/05 10:27:48;;;;;;;15.02;3.22;;;;;;;;;;3587172;40;20040;-70
2021/08/05 10:30:16;;;;;;;6.18;3.17;;;;;;;;;;3587295;40;20021;-69
2021/08/05 10:32:42;;;;;;;4.20;2.83;;;;;;;;;;3586648;40;20037;-70
2021/08/05 10:35:09;;;;;;;4.63;2.90;;;;;;;;;;3586386;40;20456;-70
2021/08/05 10:37:35;;;;;;;3.67;2.85;;;;;;;;;;3586103;40;20033;-70
2021/08/05 10:40:03;;;;;;;5.95;3.40;;;;;;;;;;3585799;40;20388;-68
2021/08/05 10:42:29;;;;;;;4.25;3.20;;;;;;;;;;3586705;40;20076;-69
2021/08/05 10:44:55;;;;;;;4.32;2.75;;;;;;;;;;3586826;40;20040;-70
2021/08/05 10:47:24;;;;;;;4.90;3.10;;;;;;;;;;3587047;40;20067;-70
2021/08/05 10:49:52;;;;;;;5.88;3.72;;;;;;;;;;3585241;40;20051;-68
2021/08/05 10:52:41;;;;;;;4.53;3.08;;;;;;;;;;3587416;40;20114;-70
2021/08/05 10:55:16;;;;;;;6.82;5.28;;;;;;;;;;3587078;40;20039;-71
2021/08/05 10:58:00;;;;;;;5.95;3.83;;;;;;;;;;3586261;40;20036;-70
2021/08/05 11:00:25;;;;;;;8.10;3.95;;;;;;;;;;3586094;40;20045;-69
2021/08/05 11:02:54;;;;;;;5.43;3.83;;;;;;;;;;3587005;40;20033;-68
2021/08/05 11:05:25;;;;;;;5.28;3.97;;;;;;;;;;3584880;40;20076;-69
2021/08/05 11:07:53;;;;;;;8.90;4.40;;;;;;;;;;3583273;40;20385;-70
2021/08/05 11:10:22;;;;;;;8.55;4.28;;;;;;;;;;3584541;40;20133;-69
2021/08/05 11:13:12;;;;;;;5.03;3.55;;;;;;;;;;3581958;40;20037;-69
2021/08/05 11:15:37;;;;;;;5.30;3.60;;;;;;;;;;3583394;40;20047;-69
2021/08/05 11:18:18;;;;;;;4.93;3.33;;;;;;;;;;3583049;40;20029;-69
2021/08/05 11:20:52;;;;;;;5.05;3.47;;;;;;;;;;3583525;40;20037;-69
2021/08/05 11:23:37;;;;;;;5.35;3.78;;;;;;;;;;3583443;40;20043;-69
2021/08/05 11:26:08;;;;;;;5.10;3.40;;;;;;;;;;3584326;40;20060;-70
2021/08/05 11:28:42;;;;;;;4.75;3.85;;;;;;;;;;3584648;40;20055;-69
2021/08/05 11:31:10;;;;;;;4.85;3.28;;;;;;;;;;3584184;40;20044;-69
2021/08/05 11:33:38;;;;;;;5.18;3.33;;;;;;;;;;3584157;40;20036;-70
2021/08/05 11:36:24;;;;;;;4.55;2.90;;;;;;;;;;3584963;40;20056;-69
2021/08/05 11:39:06;;;;;;;4.43;2.80;;;;;;;;;;3584068;40;20036;-69
2021/08/05 11:41:52;;;;;;;4.85;3.00;;;;;;;;;;3585188;40;20465;-68
2021/08/05 11:44:39;;;;;;;4.10;3.05;;;;;;;;;;3582390;40;20411;-68
2021/08/05 11:47:05;;;;;;;4.00;2.60;;;;;;;;;;3584618;40;20045;-69
2021/08/05 11:49:31;;;;;;;4.43;2.55;;;;;;;;;;3584493;40;20035;-68
2021/08/05 11:51:57;;;;;;;5.43;2.47;;;;;;;;;;3584988;40;20145;-69
2021/08/05 11:54:23;;;;;;;4.45;2.92;;;;;;;;;;3584432;40;20089;-69
2021/08/05 11:57:02;;;;;;;3.40;2.40;;;;;;;;;;3584240;40;20340;-70
2021/08/05 11:59:42;;;;;;;4.40;2.38;;;;;;;;;;3586224;40;20032;-69
2021/08/05 12:02:17;;;;;;;3.55;2.30;;;;;;;;;;3585709;40;20064;-69
2021/08/05 12:04:42;;;;;;;4.30;2.67;;;;;;;;;;3581163;40;20283;-69
2021/08/05 12:07:21;;;;;;;4.45;2.70;;;;;;;;;;3583894;40;20068;-70
2021/08/05 12:10:10;;;;;;;3.00;1.85;;;;;;;;;;3586420;40;20039;-69
2021/08/05 12:12:49;;;;;;;3.58;2.20;;;;;;;;;;3581063;40;20036;-69
2021/08/05 12:15:18;;;;;;;5.78;2.80;;;;;;;;;;3584487;40;20028;-68
2021/08/05 12:17:48;;;;;;;3.85;2.25;;;;;;;;;;3585572;40;20037;-68
2021/08/05 12:20:30;;;;;;;4.07;2.30;;;;;;;;;;3585184;40;20127;-68
2021/08/05 12:23:03;;;;;;;3.88;2.30;;;;;;;;;;3585984;40;20284;-67
2021/08/05 12:25:32;;;;;;;4.13;2.30;;;;;;;;;;3585375;40;20122;-68
2021/08/05 12:28:04;;;;;;;3.10;1.88;;;;;;;;;;3584626;40;20041;-71
2021/08/05 12:30:52;;;;;;;3.25;2.20;;;;;;;;;;3585959;40;20067;-68
2021/08/05 12:33:26;;;;;;;4.35;2.30;;;;;;;;;;3582651;40;20090;-68
2021/08/05 12:36:09;;;;;;;3.20;2.13;;;;;;;;;;3583452;40;20033;-70
2021/08/05 12:38:43;;;;;;;3.38;2.28;;;;;;;;;;3583692;40;20068;-69
2021/08/05 12:41:10;;;;;;;3.35;2.25;;;;;;;;;;3584872;40;20048;-70
2021/08/05 12:43:41;;;;;;;3.50;2.40;;;;;;;;;;3586230;40;20072;-70
2021/08/05 12:46:09;;;;;;;4.18;2.70;;;;;;;;;;3586354;40;20044;-71
2021/08/05 12:48:36;;;;;;;3.80;2.65;;;;;;;;;;3583383;40;20134;-70
2021/08/05 12:51:01;;;;;;;3.80;2.33;;;;;;;;;;3583616;40;20083;-71
2021/08/05 12:53:32;;;;;;;4.65;2.75;;;;;;;;;;3585246;40;20071;-71
2021/08/05 12:56:03;;;;;;;3.67;2.53;;;;;;;;;;3586426;40;20069;-70
2021/08/05 12:58:29;;;;;;;3.80;2.40;;;;;;;;;;3584903;40;20039;-69
2021/08/05 13:01:17;;;;;;;4.68;2.42;;;;;;;;;;3586462;40;20048;-71
2021/08/05 13:03:45;;;;;;;5.45;2.50;;;;;;;;;;3585527;40;20130;-71
2021/08/05 13:06:10;;;;;;;3.53;2.30;;;;;;;;;;3585770;40;20037;-69
2021/08/05 13:08:38;;;;;;;6.10;2.20;;;;;;;;;;3585679;40;20072;-70
2021/08/05 13:11:09;;;;;;;3.30;2.30;;;;;;;;;;3585947;40;20041;-71
2021/08/05 13:13:56;;;;;;;2.88;1.90;;;;;;;;;;3585188;40;20367;-68
2021/08/05 13:16:27;;;;;;;4.20;2.20;;;;;;;;;;3584744;40;20350;-70
2021/08/05 13:19:03;;;;;;;2.83;1.83;;;;;;;;;;3585174;40;20608;-70
2021/08/05 13:21:30;;;;;;;4.03;2.50;;;;;;;;;;3584514;40;20033;-70
2021/08/05 13:24:12;;;;;;;3.35;1.80;;;;;;;;;;3584263;40;20053;-70
2021/08/05 13:26:38;;;;;;;3.30;1.98;;;;;;;;;;3582719;40;20032;-71
2021/08/05 13:29:03;;;;;;;4.72;2.45;;;;;;;;;;3586013;40;20043;-69
2021/08/05 13:31:31;;;;;;;3.38;1.90;;;;;;;;;;3585885;40;20360;-68
2021/08/05 13:34:12;;;;;;;3.60;1.80;;;;;;;;;;3584807;40;20032;-70
2021/08/05 13:36:39;;;;;;;3.53;2.33;;;;;;;;;;3584679;40;20056;-70
2021/08/05 13:39:08;;;;;;;7.10;2.50;;;;;;;;;;3585010;40;20669;-69
2021/08/05 13:41:34;;;;;;;3.45;2.35;;;;;;;;;;3586399;40;20637;-70
2021/08/05 13:43:59;;;;;;;3.75;2.10;;;;;;;;;;3587479;40;20036;-70
2021/08/05 13:46:26;;;;;;;3.05;1.60;;;;;;;;;;3585544;40;20186;-70
2021/08/05 13:48:53;;;;;;;3.42;2.00;;;;;;;;;;3586506;40;20084;-70
2021/08/05 13:51:19;;;;;;;2.95;1.85;;;;;;;;;;3586351;40;20065;-70
2021/08/05 13:53:45;;;;;;;3.08;1.88;;;;;;;;;;3582689;40;20129;-70
2021/08/05 13:56:10;;;;;;;3.20;1.80;;;;;;;;;;3587191;40;20052;-70
2021/08/05 13:58:35;;;;;;;3.00;1.90;;;;;;;;;;3587385;40;20114;-71
2021/08/05 14:01:01;;;;;;;2.78;1.58;;;;;;;;;;3586363;40;20029;-71
2021/08/05 14:03:26;;;;;;;3.40;2.10;;;;;;;;;;3585939;40;20048;-70
2021/08/05 14:05:53;;;;;;;3.83;2.03;;;;;;;;;;3586862;40;20544;-71
2021/08/05 14:08:18;;;;;;;3.20;2.05;;;;;;;;;;3586547;40;20035;-71
2021/08/05 14:10:44;;;;;;;4.43;2.00;;;;;;;;;;3586105;40;20036;-68
2021/08/05 14:13:09;;;;;;;3.13;2.03;;;;;;;;;;3586754;40;20041;-71
2021/08/05 14:15:35;;;;;;;4.40;2.25;;;;;;;;;;3586474;40;20052;-69
2021/08/05 14:18:00;;;;;;;3.13;2.05;;;;;;;;;;3584548;40;20827;-69
2021/08/05 14:20:25;;;;;;;3.50;1.92;;;;;;;;;;3586075;40;20048;-71
2021/08/05 14:22:51;;;;;;;3.67;1.98;;;;;;;;;;3586696;40;20040;-70
2021/08/05 14:25:17;;;;;;;5.05;2.20;;;;;;;;;;3586234;40;20065;-71
2021/08/05 14:27:42;;;;;;;3.25;2.10;;;;;;;;;;3584692;40;20036;-70
2021/08/05 14:30:09;;;;;;;2.97;1.90;;;;;;;;;;3586964;40;20515;-70
2021/08/05 14:32:35;;;;;;;3.67;2.03;;;;;;;;;;3583930;40;20033;-70
2021/08/05 14:35:01;;;;;;;3.03;1.80;;;;;;;;;;3585465;40;20041;-70
2021/08/05 14:37:26;;;;;;;5.13;2.22;;;;;;;;;;3587156;40;20041;-70
2021/08/05 14:39:51;;;;;;;4.90;2.33;;;;;;;;;;3587123;40;20056;-70